sensor_id;sensor_type;location;lat;lon;timestamp;pressure;altitude;pressure_sealevel;temperature;humidity
43298;BME280;28892;55.640;37.532;2023-01-25T00:01:27;100251.09;;;0.76;62.71
43298;BME280;28892;55.640;37.532;2023-01-25T00:03:52;100255.22;;;0.80;62.83
43298;BME280;28892;55.640;37.532;2023-01-25T00:06:18;100261.75;;;0.87;62.92
43298;BME280;28892;55.640;37.532;2023-01-25T00:08:48;100256.50;;;0.73;63.07
43298;BME280;28892;55.640;37.532;2023-01-25T00:11:14;100240.84;;;0.73;62.99
43298;BME280;28892;55.640;37.532;2023-01-25T00:13:41;100246.72;;;0.76;62.54
43298;BME280;28892;55.640;37.532;2023-01-25T00:16:10;100241.03;;;0.55;62.31
43298;BME280;28892;55.640;37.532;2023-01-25T00:18:36;100238.69;;;0.50;62.26
43298;BME280;28892;55.640;37.532;2023-01-25T00:21:13;100238.78;;;0.63;62.63
43298;BME280;28892;55.640;37.532;2023-01-25T00:23:39;100236.72;;;0.39;62.53
43298;BME280;28892;55.640;37.532;2023-01-25T00:26:04;100238.69;;;0.50;62.77
43298;BME280;28892;55.640;37.532;2023-01-25T00:28:30;100226.47;;;0.51;62.72
43298;BME280;28892;55.640;37.532;2023-01-25T00:31:00;100236.25;;;0.47;62.82
43298;BME280;28892;55.640;37.532;2023-01-25T00:36:38;100224.44;;;0.56;62.42
43298;BME280;28892;55.640;37.532;2023-01-25T00:39:05;100226.59;;;0.19;62.94
43298;BME280;28892;55.640;37.532;2023-01-25T00:41:31;100216.75;;;0.38;62.60
43298;BME280;28892;55.640;37.532;2023-01-25T00:43:58;100218.50;;;0.23;62.82
43298;BME280;28892;55.640;37.532;2023-01-25T00:46:24;100215.16;;;0.21;62.91
43298;BME280;28892;55.640;37.532;2023-01-25T00:48:52;100205.31;;;0.41;62.95
43298;BME280;28892;55.640;37.532;2023-01-25T00:51:19;100213.53;;;0.49;62.51
43298;BME280;28892;55.640;37.532;2023-01-25T00:53:45;100216.03;;;0.65;62.41
43298;BME280;28892;55.640;37.532;2023-01-25T00:56:11;100203.63;;;0.69;61.69
43298;BME280;28892;55.640;37.532;2023-01-25T00:58:36;100202.59;;;0.72;61.76
43298;BME280;28892;55.640;37.532;2023-01-25T01:01:07;100206.31;;;0.82;61.39
43298;BME280;28892;55.640;37.532;2023-01-25T01:03:32;100197.28;;;0.73;61.29
43298;BME280;28892;55.640;37.532;2023-01-25T01:06:00;100194.56;;;0.75;61.50
43298;BME280;28892;55.640;37.532;2023-01-25T01:08:27;100200.91;;;0.85;61.66
43298;BME280;28892;55.640;37.532;2023-01-25T01:10:58;100200.28;;;0.81;61.30
43298;BME280;28892;55.640;37.532;2023-01-25T01:13:24;100203.88;;;0.93;61.24
43298;BME280;28892;55.640;37.532;2023-01-25T01:15:49;100195.22;;;0.78;61.20
43298;BME280;28892;55.640;37.532;2023-01-25T01:18:16;100195.22;;;0.78;61.42
43298;BME280;28892;55.640;37.532;2023-01-25T01:20:47;100186.81;;;0.88;61.46
43298;BME280;28892;55.640;37.532;2023-01-25T01:23:13;100186.00;;;0.87;61.17
43298;BME280;28892;55.640;37.532;2023-01-25T01:25:39;100186.81;;;0.88;61.16
43298;BME280;28892;55.640;37.532;2023-01-25T01:28:06;100179.53;;;0.78;61.09
43298;BME280;28892;55.640;37.532;2023-01-25T01:30:32;100176.44;;;0.86;61.31
43298;BME280;28892;55.640;37.532;2023-01-25T01:32:58;100178.69;;;0.92;61.28
43298;BME280;28892;55.640;37.532;2023-01-25T01:35:24;100172.88;;;1.02;60.66
43298;BME280;28892;55.640;37.532;2023-01-25T01:37:50;100168.31;;;0.91;60.79
43298;BME280;28892;55.640;37.532;2023-01-25T01:40:16;100165.34;;;0.97;61.07
43298;BME280;28892;55.640;37.532;2023-01-25T01:43:04;100151.28;;;1.13;61.15
43298;BME280;28892;55.640;37.532;2023-01-25T01:45:50;100161.66;;;1.14;61.23
43298;BME280;28892;55.640;37.532;2023-01-25T01:48:36;100157.91;;;1.18;61.22
43298;BME280;28892;55.640;37.532;2023-01-25T01:51:18;100154.09;;;1.09;61.46
43298;BME280;28892;55.640;37.532;2023-01-25T01:56:38;100153.47;;;1.06;62.08
43298;BME280;28892;55.640;37.532;2023-01-25T01:59:08;100149.38;;;1.02;62.16
43298;BME280;28892;55.640;37.532;2023-01-25T02:01:34;100141.75;;;0.99;62.08
43298;BME280;28892;55.640;37.532;2023-01-25T02:04:01;100143.13;;;1.04;62.23
43298;BME280;28892;55.640;37.532;2023-01-25T02:07:03;100145.19;;;0.99;62.67
43298;BME280;28892;55.640;37.532;2023-01-25T02:09:33;100150.44;;;0.70;63.36
43298;BME280;28892;55.640;37.532;2023-01-25T02:11:59;100150.75;;;0.65;63.38
43298;BME280;28892;55.640;37.532;2023-01-25T02:14:27;100139.50;;;0.50;64.07
43298;BME280;28892;55.640;37.532;2023-01-25T02:16:54;100136.75;;;0.52;63.92
43298;BME280;28892;55.640;37.532;2023-01-25T02:21:56;100139.00;;;0.15;65.57
43298;BME280;28892;55.640;37.532;2023-01-25T02:24:28;100143.69;;;0.24;65.85
43298;BME280;28892;55.640;37.532;2023-01-25T02:26:56;100160.25;;;0.08;66.10
43298;BME280;28892;55.640;37.532;2023-01-25T02:29:23;100147.31;;;0.21;65.50
43298;BME280;28892;55.640;37.532;2023-01-25T02:32:06;100152.25;;;0.11;66.41
43298;BME280;28892;55.640;37.532;2023-01-25T02:34:32;100140.69;;;0.16;66.06
43298;BME280;28892;55.640;37.532;2023-01-25T02:36:58;100153.38;;;0.36;65.25
43298;BME280;28892;55.640;37.532;2023-01-25T02:39:25;100155.69;;;0.55;64.79
43298;BME280;28892;55.640;37.532;2023-01-25T02:41:52;100152.16;;;0.27;65.42
43298;BME280;28892;55.640;37.532;2023-01-25T02:44:30;100151.69;;;0.35;66.03
43298;BME280;28892;55.640;37.532;2023-01-25T02:46:57;100148.50;;;0.30;65.77
43298;BME280;28892;55.640;37.532;2023-01-25T02:49:23;100148.97;;;0.37;65.69
43298;BME280;28892;55.640;37.532;2023-01-25T02:51:51;100151.59;;;0.51;65.55
43298;BME280;28892;55.640;37.532;2023-01-25T02:54:20;100148.25;;;0.49;65.54
43298;BME280;28892;55.640;37.532;2023-01-25T02:56:47;100154.84;;;0.40;65.48
43298;BME280;28892;55.640;37.532;2023-01-25T02:59:13;100155.59;;;0.43;65.30
43298;BME280;28892;55.640;37.532;2023-01-25T03:01:42;100159.88;;;0.15;65.85
43298;BME280;28892;55.640;37.532;2023-01-25T03:04:08;100158.28;;;0.26;66.25
43298;BME280;28892;55.640;37.532;2023-01-25T03:06:35;100154.94;;;0.24;65.98
43298;BME280;28892;55.640;37.532;2023-01-25T03:09:04;100141.34;;;0.34;65.84
43298;BME280;28892;55.640;37.532;2023-01-25T03:11:31;100148.97;;;0.37;65.61
43298;BME280;28892;55.640;37.532;2023-01-25T03:13:59;100154.69;;;0.44;65.49
43298;BME280;28892;55.640;37.532;2023-01-25T03:16:25;100155.88;;;0.52;65.55
43298;BME280;28892;55.640;37.532;2023-01-25T03:18:54;100151.88;;;0.61;65.38
43298;BME280;28892;55.640;37.532;2023-01-25T03:21:22;100148.03;;;0.67;65.23
43298;BME280;28892;55.640;37.532;2023-01-25T03:23:55;100133.09;;;0.69;65.19
43298;BME280;28892;55.640;37.532;2023-01-25T03:26:27;100124.97;;;0.74;64.61
43298;BME280;28892;55.640;37.532;2023-01-25T03:29:05;100124.16;;;0.73;64.54
43298;BME280;28892;55.640;37.532;2023-01-25T03:31:36;100137.69;;;0.65;64.47
43298;BME280;28892;55.640;37.532;2023-01-25T03:34:02;100115.59;;;0.57;64.36
43298;BME280;28892;55.640;37.532;2023-01-25T03:36:35;100118.22;;;0.13;65.84
43298;BME280;28892;55.640;37.532;2023-01-25T03:39:02;100123.16;;;0.32;66.12
43298;BME280;28892;55.640;37.532;2023-01-25T03:41:28;100120.44;;;0.48;65.77
43298;BME280;28892;55.640;37.532;2023-01-25T03:43:58;100114.50;;;0.61;65.26
43298;BME280;28892;55.640;37.532;2023-01-25T03:46:23;100114.44;;;0.75;64.92
43298;BME280;28892;55.640;37.532;2023-01-25T03:48:50;100119.66;;;0.75;64.45
43298;BME280;28892;55.640;37.532;2023-01-25T03:51:15;100127.44;;;0.48;64.94
43298;BME280;28892;55.640;37.532;2023-01-25T03:53:41;100128.00;;;0.53;65.36
43298;BME280;28892;55.640;37.532;2023-01-25T03:56:11;100136.19;;;0.61;65.24
43298;BME280;28892;55.640;37.532;2023-01-25T03:58:48;100126.72;;;0.46;65.06
43298;BME280;28892;55.640;37.532;2023-01-25T04:01:14;100132.00;;;0.44;65.69
43298;BME280;28892;55.640;37.532;2023-01-25T04:03:39;100128.38;;;0.47;65.22
43298;BME280;28892;55.640;37.532;2023-01-25T04:06:07;100119.63;;;0.33;65.34
43298;BME280;28892;55.640;37.532;2023-01-25T04:08:33;100134.91;;;0.39;65.49
43298;BME280;28892;55.640;37.532;2023-01-25T04:11:05;100137.50;;;0.10;65.75
43298;BME280;28892;55.640;37.532;2023-01-25T04:13:32;100135.66;;;0.12;66.39
43298;BME280;28892;55.640;37.532;2023-01-25T04:16:03;100130.34;;;0.29;66.26
43298;BME280;28892;55.640;37.532;2023-01-25T04:19:01;100122.41;;;0.59;65.54
43298;BME280;28892;55.640;37.532;2023-01-25T04:21:28;100118.50;;;0.66;64.32
43298;BME280;28892;55.640;37.532;2023-01-25T04:23:54;100116.97;;;0.62;64.81
43298;BME280;28892;55.640;37.532;2023-01-25T04:26:20;100114.69;;;0.29;65.35
43298;BME280;28892;55.640;37.532;2023-01-25T04:28:52;100117.66;;;0.51;65.29
43298;BME280;28892;55.640;37.532;2023-01-25T04:31:18;100116.31;;;0.59;64.64
43298;BME280;28892;55.640;37.532;2023-01-25T04:33:43;100122.59;;;0.56;64.63
43298;BME280;28892;55.640;37.532;2023-01-25T04:36:11;100122.31;;;0.46;64.40
43298;BME280;28892;55.640;37.532;2023-01-25T04:38:37;100137.44;;;0.41;65.29
43298;BME280;28892;55.640;37.532;2023-01-25T04:41:03;100126.22;;;0.53;64.95
43298;BME280;28892;55.640;37.532;2023-01-25T04:43:30;100124.97;;;0.74;64.06
43298;BME280;28892;55.640;37.532;2023-01-25T04:46:01;100123.59;;;0.82;63.51
43298;BME280;28892;55.640;37.532;2023-01-25T04:48:30;100130.56;;;0.82;63.23
43298;BME280;28892;55.640;37.532;2023-01-25T04:50:59;100132.69;;;0.90;63.21
43298;BME280;28892;55.640;37.532;2023-01-25T04:53:25;100136.50;;;0.99;62.88
43298;BME280;28892;55.640;37.532;2023-01-25T04:55:55;100147.88;;;0.97;62.45
43298;BME280;28892;55.640;37.532;2023-01-25T04:58:22;100142.28;;;1.04;62.53
43298;BME280;28892;55.640;37.532;2023-01-25T05:00:50;100138.28;;;0.98;62.27
43298;BME280;28892;55.640;37.532;2023-01-25T05:03:24;100148.59;;;1.14;62.46
43298;BME280;28892;55.640;37.532;2023-01-25T05:05:51;100140.44;;;0.91;61.61
43298;BME280;28892;55.640;37.532;2023-01-25T05:08:21;100149.63;;;0.69;61.76
43298;BME280;28892;55.640;37.532;2023-01-25T05:10:47;100147.66;;;0.59;62.26
43298;BME280;28892;55.640;37.532;2023-01-25T05:13:29;100141.41;;;0.61;62.48
43298;BME280;28892;55.640;37.532;2023-01-25T05:16:24;100138.16;;;0.58;62.46
43298;BME280;28892;55.640;37.532;2023-01-25T05:18:50;100142.00;;;0.37;62.28
43298;BME280;28892;55.640;37.532;2023-01-25T05:21:21;100139.94;;;0.43;62.77
43298;BME280;28892;55.640;37.532;2023-01-25T05:24:07;100139.28;;;0.53;62.56
43298;BME280;28892;55.640;37.532;2023-01-25T05:26:35;100139.25;;;0.68;62.17
43298;BME280;28892;55.640;37.532;2023-01-25T05:29:22;100135.50;;;0.87;61.84
43298;BME280;28892;55.640;37.532;2023-01-25T05:31:57;100152.47;;;0.94;61.86
43298;BME280;28892;55.640;37.532;2023-01-25T05:34:23;100144.44;;;0.97;61.33
43298;BME280;28892;55.640;37.532;2023-01-25T05:36:51;100152.13;;;0.86;60.55
43298;BME280;28892;55.640;37.532;2023-01-25T05:39:18;100146.44;;;0.79;60.53
43298;BME280;28892;55.640;37.532;2023-01-25T05:41:46;100155.25;;;0.91;60.44
43298;BME280;28892;55.640;37.532;2023-01-25T05:44:12;100154.44;;;0.76;60.42
43298;BME280;28892;55.640;37.532;2023-01-25T05:46:44;100154.28;;;0.64;61.01
43298;BME280;28892;55.640;37.532;2023-01-25T05:49:10;100129.78;;;0.52;61.29
43298;BME280;28892;55.640;37.532;2023-01-25T05:51:36;100140.75;;;0.58;61.57
43298;BME280;28892;55.640;37.532;2023-01-25T05:54:08;100137.22;;;0.59;61.69
43298;BME280;28892;55.640;37.532;2023-01-25T05:56:34;100137.03;;;0.62;61.53
43298;BME280;28892;55.640;37.532;2023-01-25T05:59:00;100137.88;;;0.62;61.53
43298;BME280;28892;55.640;37.532;2023-01-25T06:01:26;100124.97;;;0.74;61.70
43298;BME280;28892;55.640;37.532;2023-01-25T06:03:56;100136.19;;;0.61;61.51
43298;BME280;28892;55.640;37.532;2023-01-25T06:06:24;100137.59;;;0.67;61.80
43298;BME280;28892;55.640;37.532;2023-01-25T06:08:51;100137.97;;;0.75;61.12
43298;BME280;28892;55.640;37.532;2023-01-25T06:11:22;100141.63;;;0.58;61.38
43298;BME280;28892;55.640;37.532;2023-01-25T06:13:50;100130.72;;;0.37;61.84
43298;BME280;28892;55.640;37.532;2023-01-25T06:16:16;100139.00;;;0.58;62.14
43298;BME280;28892;55.640;37.532;2023-01-25T06:18:57;100144.44;;;0.55;61.21
43298;BME280;28892;55.640;37.532;2023-01-25T06:21:45;100135.34;;;0.03;62.67
43298;BME280;28892;55.640;37.532;2023-01-25T06:24:11;100135.28;;;0.19;62.52
43298;BME280;28892;55.640;37.532;2023-01-25T06:26:37;100132.03;;;0.30;62.43
43298;BME280;28892;55.640;37.532;2023-01-25T06:29:05;100134.91;;;0.39;62.18
43298;BME280;28892;55.640;37.532;2023-01-25T06:31:31;100132.13;;;0.28;61.98
43298;BME280;28892;55.640;37.532;2023-01-25T06:33:57;100133.78;;;0.29;62.26
43298;BME280;28892;55.640;37.532;2023-01-25T06:36:25;100132.84;;;0.30;62.41
43298;BME280;28892;55.640;37.532;2023-01-25T06:38:51;100128.22;;;0.35;62.10
43298;BME280;28892;55.640;37.532;2023-01-25T06:41:18;100128.66;;;0.57;62.14
43298;BME280;28892;55.640;37.532;2023-01-25T06:43:44;100129.88;;;0.65;61.61
43298;BME280;28892;55.640;37.532;2023-01-25T06:46:10;100137.69;;;0.65;61.60
43298;BME280;28892;55.640;37.532;2023-01-25T06:48:37;100143.91;;;0.77;61.46
43298;BME280;28892;55.640;37.532;2023-01-25T06:51:05;100139.72;;;0.75;61.25
43298;BME280;28892;55.640;37.532;2023-01-25T06:53:33;100136.00;;;0.64;61.75
43298;BME280;28892;55.640;37.532;2023-01-25T06:56:05;100134.25;;;0.65;61.97
43298;BME280;28892;55.640;37.532;2023-01-25T06:58:31;100145.34;;;0.54;61.61
43298;BME280;28892;55.640;37.532;2023-01-25T07:01:05;100148.16;;;0.65;61.93
43298;BME280;28892;55.640;37.532;2023-01-25T07:03:32;100147.75;;;0.72;62.01
43298;BME280;28892;55.640;37.532;2023-01-25T07:06:03;100139.25;;;0.82;61.93
43298;BME280;28892;55.640;37.532;2023-01-25T07:08:30;100150.38;;;0.57;61.83
43298;BME280;28892;55.640;37.532;2023-01-25T07:11:01;100143.75;;;0.22;62.63
43298;BME280;28892;55.640;37.532;2023-01-25T07:13:34;100139.09;;;-0.02;63.01
43298;BME280;28892;55.640;37.532;2023-01-25T07:16:02;100138.53;;;0.22;63.52
43298;BME280;28892;55.640;37.532;2023-01-25T07:18:29;100139.66;;;0.47;62.64
43298;BME280;28892;55.640;37.532;2023-01-25T07:21:26;100135.72;;;0.69;62.27
43298;BME280;28892;55.640;37.532;2023-01-25T07:23:52;100133.09;;;0.69;61.83
43298;BME280;28892;55.640;37.532;2023-01-25T07:26:24;100135.53;;;0.58;61.67
43298;BME280;28892;55.640;37.532;2023-01-25T07:28:51;100124.00;;;0.47;62.44
43298;BME280;28892;55.640;37.532;2023-01-25T07:31:19;100136.84;;;0.65;62.40
43298;BME280;28892;55.640;37.532;2023-01-25T07:33:55;100133.91;;;0.84;61.91
43298;BME280;28892;55.640;37.532;2023-01-25T07:36:21;100132.59;;;0.91;61.70
43298;BME280;28892;55.640;37.532;2023-01-25T07:38:48;100131.28;;;0.99;61.85
43298;BME280;28892;55.640;37.532;2023-01-25T07:41:14;100131.91;;;1.02;61.31
43298;BME280;28892;55.640;37.532;2023-01-25T07:43:41;100133.13;;;1.11;61.16
43298;BME280;28892;55.640;37.532;2023-01-25T07:46:10;100133.66;;;1.16;60.68
43298;BME280;28892;55.640;37.532;2023-01-25T07:48:44;100131.25;;;1.13;61.03
43298;BME280;28892;55.640;37.532;2023-01-25T07:51:10;100127.53;;;1.03;61.26
43298;BME280;28892;55.640;37.532;2023-01-25T07:53:40;100135.53;;;1.14;61.31
43298;BME280;28892;55.640;37.532;2023-01-25T07:56:09;100122.16;;;1.19;61.02
43298;BME280;28892;55.640;37.532;2023-01-25T07:58:34;100127.59;;;1.16;60.93
43298;BME280;28892;55.640;37.532;2023-01-25T08:01:17;100125.28;;;1.11;61.73
43298;BME280;28892;55.640;37.532;2023-01-25T08:03:44;100120.13;;;1.09;61.76
43298;BME280;28892;55.640;37.532;2023-01-25T08:06:11;100116.72;;;0.94;61.94
43298;BME280;28892;55.640;37.532;2023-01-25T08:08:40;100117.00;;;1.04;61.88
43298;BME280;28892;55.640;37.532;2023-01-25T08:11:30;100123.19;;;1.16;61.88
43298;BME280;28892;55.640;37.532;2023-01-25T08:13:55;100117.47;;;1.24;61.23
43298;BME280;28892;55.640;37.532;2023-01-25T08:16:24;100120.63;;;1.29;61.26
43298;BME280;28892;55.640;37.532;2023-01-25T08:18:55;100125.22;;;1.25;61.52
43298;BME280;28892;55.640;37.532;2023-01-25T08:21:22;100111.00;;;1.30;61.37
43298;BME280;28892;55.640;37.532;2023-01-25T08:23:50;100117.72;;;1.34;60.98
43298;BME280;28892;55.640;37.532;2023-01-25T08:26:16;100105.72;;;1.44;60.79
43298;BME280;28892;55.640;37.532;2023-01-25T08:28:42;100114.38;;;1.45;60.63
43298;BME280;28892;55.640;37.532;2023-01-25T08:31:22;100119.56;;;1.59;60.48
43298;BME280;28892;55.640;37.532;2023-01-25T08:33:49;100112.97;;;1.53;59.93
43298;BME280;28892;55.640;37.532;2023-01-25T08:36:16;100120.91;;;1.52;59.98
43298;BME280;28892;55.640;37.532;2023-01-25T08:38:46;100113.78;;;1.54;60.35
43298;BME280;28892;55.640;37.532;2023-01-25T08:41:17;100111.06;;;1.56;60.43
43298;BME280;28892;55.640;37.532;2023-01-25T08:43:45;100114.72;;;1.53;60.28
43298;BME280;28892;55.640;37.532;2023-01-25T08:46:12;100111.81;;;1.58;59.89
43298;BME280;28892;55.640;37.532;2023-01-25T08:48:38;100115.66;;;1.52;59.79
43298;BME280;28892;55.640;37.532;2023-01-25T08:51:04;100108.72;;;1.38;59.68
43298;BME280;28892;55.640;37.532;2023-01-25T08:53:32;100094.06;;;1.22;60.07
43298;BME280;28892;55.640;37.532;2023-01-25T08:56:04;100093.97;;;1.37;60.21
43298;BME280;28892;55.640;37.532;2023-01-25T08:58:30;100101.09;;;1.35;60.30
43298;BME280;28892;55.640;37.532;2023-01-25T09:01:00;100084.13;;;1.28;59.91
43298;BME280;28892;55.640;37.532;2023-01-25T09:03:27;100078.25;;;1.24;60.14
43298;BME280;28892;55.640;37.532;2023-01-25T09:05:53;100074.94;;;0.94;60.64
43298;BME280;28892;55.640;37.532;2023-01-25T09:08:22;100066.59;;;1.02;61.03
43298;BME280;28892;55.640;37.532;2023-01-25T09:10:47;100071.94;;;1.14;61.08
43298;BME280;28892;55.640;37.532;2023-01-25T09:13:13;100068.53;;;1.13;60.36
43298;BME280;28892;55.640;37.532;2023-01-25T09:15:39;100069.31;;;1.01;60.52
43298;BME280;28892;55.640;37.532;2023-01-25T09:18:05;100063.53;;;0.95;61.01
43298;BME280;28892;55.640;37.532;2023-01-25T09:20:31;100055.75;;;1.08;61.25
43298;BME280;28892;55.640;37.532;2023-01-25T09:22:57;100067.69;;;0.85;60.75
43298;BME280;28892;55.640;37.532;2023-01-25T09:25:22;100054.31;;;0.90;61.35
43298;BME280;28892;55.640;37.532;2023-01-25T09:27:49;100054.47;;;1.01;61.50
43298;BME280;28892;55.640;37.532;2023-01-25T09:30:16;100055.03;;;1.06;61.18
43298;BME280;28892;55.640;37.532;2023-01-25T09:32:43;100055.16;;;1.18;61.05
43298;BME280;28892;55.640;37.532;2023-01-25T09:35:09;100047.31;;;1.18;60.91
43298;BME280;28892;55.640;37.532;2023-01-25T09:37:35;100056.09;;;-0.09;63.75
43298;BME280;28892;55.640;37.532;2023-01-25T09:40:01;100043.69;;;-0.35;65.98
43298;BME280;28892;55.640;37.532;2023-01-25T09:42:44;100042.28;;;0.03;65.52
43298;BME280;28892;55.640;37.532;2023-01-25T09:47:53;100022.53;;;0.13;64.27
43298;BME280;28892;55.640;37.532;2023-01-25T09:53:24;100018.25;;;-0.17;65.81
43298;BME280;28892;55.640;37.532;2023-01-25T09:55:58;100007.34;;;-0.52;66.59
43298;BME280;28892;55.640;37.532;2023-01-25T09:58:33;100005.66;;;0.19;64.75
43298;BME280;28892;55.640;37.532;2023-01-25T10:01:26;99999.22;;;0.25;64.42
43298;BME280;28892;55.640;37.532;2023-01-25T10:06:22;99992.53;;;-0.23;65.75
43298;BME280;28892;55.640;37.532;2023-01-25T10:11:43;99978.50;;;-0.20;64.06
43298;BME280;28892;55.640;37.532;2023-01-25T10:14:17;99986.28;;;-0.78;66.23
43298;BME280;28892;55.640;37.532;2023-01-25T10:19:44;99974.78;;;-0.90;67.38
43298;BME280;28892;55.640;37.532;2023-01-25T10:22:23;99965.00;;;-0.41;66.67
43298;BME280;28892;55.640;37.532;2023-01-25T10:31:03;99974.19;;;-0.07;64.82
43298;BME280;28892;55.640;37.532;2023-01-25T10:33:22;99978.88;;;-0.12;63.04
43298;BME280;28892;55.640;37.532;2023-01-25T10:35:49;99966.19;;;-0.04;63.84
43298;BME280;28892;55.640;37.532;2023-01-25T10:38:28;99980.00;;;-0.16;63.37
43298;BME280;28892;55.640;37.532;2023-01-25T10:41:02;99965.72;;;0.04;63.21
43298;BME280;28892;55.640;37.532;2023-01-25T10:43:30;99966.47;;;0.34;62.72
43298;BME280;28892;55.640;37.532;2023-01-25T10:45:55;99965.09;;;0.28;61.57
43298;BME280;28892;55.640;37.532;2023-01-25T10:48:35;99960.59;;;0.30;61.84
43298;BME280;28892;55.640;37.532;2023-01-25T10:51:01;99955.00;;;0.36;61.42
43298;BME280;28892;55.640;37.532;2023-01-25T10:53:35;99965.59;;;0.75;61.85
43298;BME280;28892;55.640;37.532;2023-01-25T10:56:37;99950.63;;;1.18;61.13
43298;BME280;28892;55.640;37.532;2023-01-25T10:59:59;99931.66;;;0.88;59.53
43298;BME280;28892;55.640;37.532;2023-01-25T11:05:38;99932.00;;;1.22;58.89
43298;BME280;28892;55.640;37.532;2023-01-25T11:11:13;99925.63;;;1.27;58.89
43298;BME280;28892;55.640;37.532;2023-01-25T11:13:40;99922.59;;;1.33;58.59
43298;BME280;28892;55.640;37.532;2023-01-25T11:18:57;99922.78;;;1.56;57.96
43298;BME280;28892;55.640;37.532;2023-01-25T11:21:31;99928.34;;;1.64;56.99
43298;BME280;28892;55.640;37.532;2023-01-25T11:24:16;99918.59;;;1.66;57.50
43298;BME280;28892;55.640;37.532;2023-01-25T11:26:43;99909.00;;;1.53;57.90
43298;BME280;28892;55.640;37.532;2023-01-25T11:29:13;99916.56;;;1.19;57.81
43298;BME280;28892;55.640;37.532;2023-01-25T11:31:41;99904.28;;;0.81;58.94
43298;BME280;28892;55.640;37.532;2023-01-25T11:34:13;99913.78;;;0.41;60.05
43298;BME280;28892;55.640;37.532;2023-01-25T11:53:34;99885.59;;;1.00;57.98
43298;BME280;28892;55.640;37.532;2023-01-25T11:56:22;99890.09;;;1.11;58.04
43298;BME280;28892;55.640;37.532;2023-01-25T12:02:14;99890.00;;;1.00;57.39
43298;BME280;28892;55.640;37.532;2023-01-25T12:10:25;99890.97;;;0.58;58.27
43298;BME280;28892;55.640;37.532;2023-01-25T12:15:58;99901.56;;;-0.28;60.42
43298;BME280;28892;55.640;37.532;2023-01-25T12:26:54;99884.81;;;0.59;59.39
43298;BME280;28892;55.640;37.532;2023-01-25T12:29:25;99882.09;;;0.74;59.27
43298;BME280;28892;55.640;37.532;2023-01-25T12:31:55;99878.78;;;0.97;59.03
43298;BME280;28892;55.640;37.532;2023-01-25T12:34:35;99874.28;;;1.13;58.89
43298;BME280;28892;55.640;37.532;2023-01-25T12:37:12;99884.25;;;0.54;59.17
43298;BME280;28892;55.640;37.532;2023-01-25T12:39:45;99874.59;;;-0.26;61.33
43298;BME280;28892;55.640;37.532;2023-01-25T12:42:31;99882.16;;;-0.51;62.32
43298;BME280;28892;55.640;37.532;2023-01-25T12:45:05;99878.47;;;0.08;61.42
43298;BME280;28892;55.640;37.532;2023-01-25T12:47:42;99877.47;;;0.11;61.17
43298;BME280;28892;55.640;37.532;2023-01-25T12:50:37;99870.16;;;0.44;60.21
43298;BME280;28892;55.640;37.532;2023-01-25T12:53:18;99863.31;;;0.28;60.90
43298;BME280;28892;55.640;37.532;2023-01-25T12:55:46;99860.47;;;0.46;60.49
43298;BME280;28892;55.640;37.532;2023-01-25T12:58:37;99852.88;;;0.81;59.99
43298;BME280;28892;55.640;37.532;2023-01-25T13:06:14;99852.84;;;0.55;60.61
43298;BME280;28892;55.640;37.532;2023-01-25T13:11:32;99849.13;;;0.32;61.17
43298;BME280;28892;55.640;37.532;2023-01-25T13:14:21;99847.34;;;0.73;60.67
43298;BME280;28892;55.640;37.532;2023-01-25T13:23:44;99835.66;;;0.79;60.45
43298;BME280;28892;55.640;37.532;2023-01-25T13:28:48;99838.03;;;0.82;59.79
43298;BME280;28892;55.640;37.532;2023-01-25T13:42:16;99805.94;;;0.41;60.14
43298;BME280;28892;55.640;37.532;2023-01-25T13:44:45;99799.22;;;0.24;61.83
43298;BME280;28892;55.640;37.532;2023-01-25T13:47:13;99794.34;;;0.45;61.11
43298;BME280;28892;55.640;37.532;2023-01-25T13:50:07;99781.13;;;0.87;60.86
43298;BME280;28892;55.640;37.532;2023-01-25T13:52:34;99784.84;;;0.83;60.13
43298;BME280;28892;55.640;37.532;2023-01-25T13:55:00;99775.44;;;0.80;60.15
43298;BME280;28892;55.640;37.532;2023-01-25T13:57:30;99763.00;;;0.97;60.01
43298;BME280;28892;55.640;37.532;2023-01-25T14:00:05;99776.16;;;0.95;60.25
43298;BME280;28892;55.640;37.532;2023-01-25T14:02:31;99756.13;;;0.83;59.95
43298;BME280;28892;55.640;37.532;2023-01-25T14:04:59;99749.16;;;0.83;59.77
43298;BME280;28892;55.640;37.532;2023-01-25T14:07:32;99752.91;;;0.53;60.58
43298;BME280;28892;55.640;37.532;2023-01-25T14:10:08;99755.63;;;0.78;60.46
43298;BME280;28892;55.640;37.532;2023-01-25T14:12:38;99747.03;;;0.76;60.36
43298;BME280;28892;55.640;37.532;2023-01-25T14:15:22;99748.59;;;0.78;60.72
43298;BME280;28892;55.640;37.532;2023-01-25T14:18:11;99751.31;;;0.90;60.17
43298;BME280;28892;55.640;37.532;2023-01-25T14:20:40;99742.03;;;0.86;60.34
43298;BME280;28892;55.640;37.532;2023-01-25T14:25:47;99754.47;;;0.82;60.35
43298;BME280;28892;55.640;37.532;2023-01-25T14:28:13;99751.53;;;0.87;59.86
43298;BME280;28892;55.640;37.532;2023-01-25T14:30:39;99762.38;;;0.80;60.30
43298;BME280;28892;55.640;37.532;2023-01-25T14:35:43;99754.06;;;0.36;60.82
43298;BME280;28892;55.640;37.532;2023-01-25T14:38:35;99746.56;;;-0.09;63.07
43298;BME280;28892;55.640;37.532;2023-01-25T14:43:31;99746.75;;;0.29;61.71
43298;BME280;28892;55.640;37.532;2023-01-25T14:45:57;99740.88;;;0.25;61.74
43298;BME280;28892;55.640;37.532;2023-01-25T14:48:33;99739.34;;;0.35;61.70
43298;BME280;28892;55.640;37.532;2023-01-25T14:51:08;99738.09;;;0.41;61.26
43298;BME280;28892;55.640;37.532;2023-01-25T14:53:38;99743.19;;;0.43;61.45
43298;BME280;28892;55.640;37.532;2023-01-25T14:56:25;99757.91;;;0.57;61.20
43298;BME280;28892;55.640;37.532;2023-01-25T14:58:52;99752.69;;;0.31;61.72
43298;BME280;28892;55.640;37.532;2023-01-25T15:01:28;99750.47;;;-0.29;62.86